sensor_id;sensor_type;location;lat;lon;timestamp;pressure;altitude;pressure_sealevel;temperature;humidity
23677;BME280;31493;49.058;12.190;2023-06-22T00:01:46;96326.38;;;18.94;100.00
23677;BME280;31493;49.058;12.190;2023-06-22T00:04:13;96322.03;;;19.02;100.00
23677;BME280;31493;49.058;12.190;2023-06-22T00:06:40;96327.19;;;18.94;100.00
23677;BME280;31493;49.058;12.190;2023-06-22T00:09:07;96316.31;;;18.71;100.00
23677;BME280;31493;49.058;12.190;2023-06-22T00:11:36;96309.38;;;18.80;100.00
23677;BME280;31493;49.058;12.190;2023-06-22T00:14:04;96314.63;;;18.80;100.00
23677;BME280;31493;49.058;12.190;2023-06-22T00:16:31;96293.69;;;19.06;100.00
23677;BME280;31493;49.058;12.190;2023-06-22T00:18:59;96296.47;;;18.69;100.00
23677;BME280;31493;49.058;12.190;2023-06-22T00:21:27;96281.41;;;19.06;100.00
23677;BME280;31493;49.058;12.190;2023-06-22T00:23:54;96292.50;;;19.00;100.00
23677;BME280;31493;49.058;12.190;2023-06-22T00:26:21;96274.28;;;18.99;100.00
23677;BME280;31493;49.058;12.190;2023-06-22T00:28:48;96279.09;;;19.03;100.00
23677;BME280;31493;49.058;12.190;2023-06-22T00:31:17;96284.72;;;18.91;100.00
23677;BME280;31493;49.058;12.190;2023-06-22T00:33:44;96276.25;;;18.97;100.00
23677;BME280;31493;49.058;12.190;2023-06-22T00:36:11;96283.53;;;19.03;100.00
23677;BME280;31493;49.058;12.190;2023-06-22T00:38:41;96263.34;;;19.03;100.00
23677;BME280;31493;49.058;12.190;2023-06-22T00:41:08;96245.34;;;19.09;100.00
23677;BME280;31493;49.058;12.190;2023-06-22T00:43:35;96245.19;;;19.10;100.00
23677;BME280;31493;49.058;12.190;2023-06-22T00:46:02;96239.59;;;19.05;100.00
23677;BME280;31493;49.058;12.190;2023-06-22T00:48:31;96249.16;;;18.96;100.00
23677;BME280;31493;49.058;12.190;2023-06-22T00:50:59;96233.53;;;18.69;100.00
23677;BME280;31493;49.058;12.190;2023-06-22T00:53:26;96237.16;;;18.40;100.00
23677;BME280;31493;49.058;12.190;2023-06-22T00:55:53;96233.94;;;18.46;100.00
23677;BME280;31493;49.058;12.190;2023-06-22T00:58:21;96238.56;;;18.35;100.00
23677;BME280;31493;49.058;12.190;2023-06-22T01:00:51;96246.22;;;18.46;100.00
23677;BME280;31493;49.058;12.190;2023-06-22T01:03:18;96238.22;;;18.02;100.00
23677;BME280;31493;49.058;12.190;2023-06-22T01:05:48;96249.50;;;18.03;100.00
23677;BME280;31493;49.058;12.190;2023-06-22T01:08:23;96242.00;;;17.90;100.00
23677;BME280;31493;49.058;12.190;2023-06-22T01:10:57;96256.16;;;17.97;100.00
23677;BME280;31493;49.058;12.190;2023-06-22T01:13:30;96252.63;;;17.88;100.00
23677;BME280;31493;49.058;12.190;2023-06-22T01:16:02;96245.78;;;18.05;100.00
23677;BME280;31493;49.058;12.190;2023-06-22T01:18:31;96247.25;;;18.17;100.00
23677;BME280;31493;49.058;12.190;2023-06-22T01:21:00;96235.94;;;18.17;100.00
23677;BME280;31493;49.058;12.190;2023-06-22T01:23:35;96246.28;;;18.18;100.00
23677;BME280;31493;49.058;12.190;2023-06-22T01:26:08;96242.00;;;18.35;100.00
23677;BME280;31493;49.058;12.190;2023-06-22T01:28:45;96246.69;;;18.14;100.00
23677;BME280;31493;49.058;12.190;2023-06-22T01:31:15;96241.22;;;18.07;100.00
23677;BME280;31493;49.058;12.190;2023-06-22T01:33:44;96231.13;;;18.12;100.00
23677;BME280;31493;49.058;12.190;2023-06-22T01:36:13;96232.06;;;18.39;100.00
23677;BME280;31493;49.058;12.190;2023-06-22T01:38:41;96237.25;;;18.66;100.00
23677;BME280;31493;49.058;12.190;2023-06-22T01:41:10;96249.22;;;18.78;100.00
23677;BME280;31493;49.058;12.190;2023-06-22T01:43:37;96242.88;;;18.89;100.00
23677;BME280;31493;49.058;12.190;2023-06-22T01:46:06;96243.09;;;18.78;100.00
23677;BME280;31493;49.058;12.190;2023-06-22T01:48:34;96243.38;;;18.57;100.00
23677;BME280;31493;49.058;12.190;2023-06-22T01:51:02;96255.97;;;18.36;100.00
23677;BME280;31493;49.058;12.190;2023-06-22T01:53:29;96260.13;;;18.29;100.00
23677;BME280;31493;49.058;12.190;2023-06-22T01:55:56;96248.25;;;18.52;100.00
23677;BME280;31493;49.058;12.190;2023-06-22T01:58:26;96258.72;;;18.52;100.00
23677;BME280;31493;49.058;12.190;2023-06-22T02:00:58;96263.03;;;18.25;100.00
23677;BME280;31493;49.058;12.190;2023-06-22T02:03:31;96269.56;;;18.39;100.00
23677;BME280;31493;49.058;12.190;2023-06-22T02:06:08;96270.94;;;18.43;100.00
23677;BME280;31493;49.058;12.190;2023-06-22T02:08:40;96277.97;;;18.43;100.00
23677;BME280;31493;49.058;12.190;2023-06-22T02:11:09;96290.97;;;18.35;100.00
23677;BME280;31493;49.058;12.190;2023-06-22T02:13:37;96286.56;;;18.35;100.00
23677;BME280;31493;49.058;12.190;2023-06-22T02:16:08;96280.94;;;18.03;100.00
23677;BME280;31493;49.058;12.190;2023-06-22T02:18:37;96268.28;;;17.98;100.00
23677;BME280;31493;49.058;12.190;2023-06-22T02:21:06;96274.25;;;17.90;100.00
23677;BME280;31493;49.058;12.190;2023-06-22T02:23:33;96265.06;;;17.77;100.00
23677;BME280;31493;49.058;12.190;2023-06-22T02:26:03;96267.13;;;17.83;100.00
23677;BME280;31493;49.058;12.190;2023-06-22T02:28:30;96267.06;;;18.20;100.00
23677;BME280;31493;49.058;12.190;2023-06-22T02:30:56;96271.34;;;17.93;100.00
23677;BME280;31493;49.058;12.190;2023-06-22T02:33:23;96270.78;;;17.99;100.00
23677;BME280;31493;49.058;12.190;2023-06-22T02:35:52;96266.63;;;17.97;100.00
23677;BME280;31493;49.058;12.190;2023-06-22T02:38:19;96263.75;;;17.90;100.00
23677;BME280;31493;49.058;12.190;2023-06-22T02:40:46;96264.84;;;17.97;100.00
23677;BME280;31493;49.058;12.190;2023-06-22T02:43:13;96252.06;;;17.85;100.00
23677;BME280;31493;49.058;12.190;2023-06-22T02:45:40;96246.59;;;17.78;100.00
23677;BME280;31493;49.058;12.190;2023-06-22T02:48:07;96248.53;;;17.66;100.00
23677;BME280;31493;49.058;12.190;2023-06-22T02:50:34;96251.22;;;17.47;100.00
23677;BME280;31493;49.058;12.190;2023-06-22T02:53:03;96242.63;;;17.55;100.00
23677;BME280;31493;49.058;12.190;2023-06-22T02:55:30;96244.31;;;17.56;100.00
23677;BME280;31493;49.058;12.190;2023-06-22T02:57:57;96241.31;;;17.41;100.00
23677;BME280;31493;49.058;12.190;2023-06-22T03:00:25;96247.41;;;17.22;100.00
23677;BME280;31493;49.058;12.190;2023-06-22T03:02:56;96249.22;;;17.22;100.00
23677;BME280;31493;49.058;12.190;2023-06-22T03:05:24;96247.66;;;17.29;100.00
23677;BME280;31493;49.058;12.190;2023-06-22T03:07:51;96239.09;;;17.36;100.00
23677;BME280;31493;49.058;12.190;2023-06-22T03:10:20;96242.94;;;17.52;100.00
23677;BME280;31493;49.058;12.190;2023-06-22T03:12:47;96246.53;;;17.41;100.00
23677;BME280;31493;49.058;12.190;2023-06-22T03:15:14;96233.84;;;17.56;100.00
23677;BME280;31493;49.058;12.190;2023-06-22T03:17:43;96241.53;;;17.57;100.00
23677;BME280;31493;49.058;12.190;2023-06-22T03:20:10;96239.38;;;17.43;100.00
23677;BME280;31493;49.058;12.190;2023-06-22T03:22:38;96238.53;;;17.52;100.00
23677;BME280;31493;49.058;12.190;2023-06-22T03:25:07;96235.59;;;17.75;100.00
23677;BME280;31493;49.058;12.190;2023-06-22T03:27:39;96237.63;;;17.71;100.00
23677;BME280;31493;49.058;12.190;2023-06-22T03:30:08;96221.91;;;17.43;100.00
23677;BME280;31493;49.058;12.190;2023-06-22T03:32:36;96234.69;;;17.37;100.00
23677;BME280;31493;49.058;12.190;2023-06-22T03:35:03;96232.94;;;17.28;100.00
23677;BME280;31493;49.058;12.190;2023-06-22T03:37:31;96242.84;;;17.24;100.00
23677;BME280;31493;49.058;12.190;2023-06-22T03:39:59;96240.28;;;17.14;100.00
23677;BME280;31493;49.058;12.190;2023-06-22T03:42:26;96250.22;;;17.01;100.00
23677;BME280;31493;49.058;12.190;2023-06-22T03:44:55;96247.44;;;17.03;100.00
23677;BME280;31493;49.058;12.190;2023-06-22T03:47:22;96252.53;;;17.14;100.00
23677;BME280;31493;49.058;12.190;2023-06-22T03:49:49;96257.72;;;17.24;100.00
23677;BME280;31493;49.058;12.190;2023-06-22T03:52:20;96258.31;;;17.08;100.00
23677;BME280;31493;49.058;12.190;2023-06-22T03:54:48;96257.50;;;17.07;100.00
23677;BME280;31493;49.058;12.190;2023-06-22T03:57:15;96254.59;;;17.20;100.00
23677;BME280;31493;49.058;12.190;2023-06-22T03:59:42;96267.53;;;17.12;100.00
23677;BME280;31493;49.058;12.190;2023-06-22T04:02:10;96265.16;;;17.28;100.00
23677;BME280;31493;49.058;12.190;2023-06-22T04:04:37;96269.84;;;17.25;100.00
23677;BME280;31493;49.058;12.190;2023-06-22T04:07:05;96269.97;;;17.33;100.00
23677;BME280;31493;49.058;12.190;2023-06-22T04:09:32;96266.28;;;17.26;100.00
23677;BME280;31493;49.058;12.190;2023-06-22T04:12:01;96273.97;;;17.27;100.00
23677;BME280;31493;49.058;12.190;2023-06-22T04:14:28;96274.41;;;17.32;100.00
23677;BME280;31493;49.058;12.190;2023-06-22T04:16:55;96271.06;;;17.40;100.00
23677;BME280;31493;49.058;12.190;2023-06-22T04:19:23;96274.81;;;17.37;100.00
23677;BME280;31493;49.058;12.190;2023-06-22T04:21:50;96277.00;;;17.32;100.00
23677;BME280;31493;49.058;12.190;2023-06-22T04:24:17;96283.78;;;17.25;100.00
23677;BME280;31493;49.058;12.190;2023-06-22T04:26:45;96282.66;;;17.28;100.00
23677;BME280;31493;49.058;12.190;2023-06-22T04:29:13;96284.56;;;17.45;100.00
23677;BME280;31493;49.058;12.190;2023-06-22T04:31:40;96287.19;;;17.35;100.00
23677;BME280;31493;49.058;12.190;2023-06-22T04:34:07;96284.00;;;17.51;100.00
23677;BME280;31493;49.058;12.190;2023-06-22T04:36:37;96284.97;;;17.50;100.00
23677;BME280;31493;49.058;12.190;2023-06-22T04:39:05;96281.44;;;17.79;100.00
23677;BME280;31493;49.058;12.190;2023-06-22T04:41:35;96280.34;;;17.81;100.00
23677;BME280;31493;49.058;12.190;2023-06-22T04:44:09;96277.69;;;17.91;100.00
23677;BME280;31493;49.058;12.190;2023-06-22T04:46:37;96269.94;;;18.72;100.00
23677;BME280;31493;49.058;12.190;2023-06-22T04:49:05;96266.69;;;18.42;100.00
23677;BME280;31493;49.058;12.190;2023-06-22T04:51:39;96260.81;;;18.31;100.00
23677;BME280;31493;49.058;12.190;2023-06-22T04:54:08;96255.16;;;18.08;100.00
23677;BME280;31493;49.058;12.190;2023-06-22T04:56:35;96255.19;;;17.98;100.00
23677;BME280;31493;49.058;12.190;2023-06-22T04:59:02;96251.47;;;18.01;100.00
23677;BME280;31493;49.058;12.190;2023-06-22T05:01:30;96261.50;;;18.05;100.00
23677;BME280;31493;49.058;12.190;2023-06-22T05:03:58;96270.47;;;18.03;100.00
23677;BME280;31493;49.058;12.190;2023-06-22T05:06:27;96264.13;;;18.05;100.00
23677;BME280;31493;49.058;12.190;2023-06-22T05:08:57;96259.66;;;18.15;100.00
23677;BME280;31493;49.058;12.190;2023-06-22T05:11:25;96269.72;;;17.92;100.00
23677;BME280;31493;49.058;12.190;2023-06-22T05:13:52;96268.81;;;18.02;100.00
23677;BME280;31493;49.058;12.190;2023-06-22T05:16:20;96264.47;;;17.92;100.00
23677;BME280;31493;49.058;12.190;2023-06-22T05:18:51;96255.16;;;18.08;100.00
23677;BME280;31493;49.058;12.190;2023-06-22T05:21:21;96247.00;;;18.29;100.00
23677;BME280;31493;49.058;12.190;2023-06-22T05:23:49;96245.09;;;18.31;100.00
23677;BME280;31493;49.058;12.190;2023-06-22T05:26:18;96253.53;;;18.70;100.00
23677;BME280;31493;49.058;12.190;2023-06-22T05:28:45;96243.38;;;18.67;100.00
23677;BME280;31493;49.058;12.190;2023-06-22T05:31:13;96249.75;;;18.55;100.00
23677;BME280;31493;49.058;12.190;2023-06-22T05:33:40;96243.19;;;18.86;100.00
23677;BME280;31493;49.058;12.190;2023-06-22T05:36:07;96244.03;;;18.87;100.00
23677;BME280;31493;49.058;12.190;2023-06-22T05:38:36;96221.44;;;18.94;100.00
23677;BME280;31493;49.058;12.190;2023-06-22T05:41:03;96231.09;;;19.11;100.00
23677;BME280;31493;49.058;12.190;2023-06-22T05:43:31;96233.53;;;19.30;100.00
23677;BME280;31493;49.058;12.190;2023-06-22T05:45:59;96233.50;;;19.04;100.00
23677;BME280;31493;49.058;12.190;2023-06-22T05:48:27;96238.03;;;19.20;100.00
23677;BME280;31493;49.058;12.190;2023-06-22T05:50:54;96228.81;;;19.60;100.00
23677;BME280;31493;49.058;12.190;2023-06-22T05:53:21;96235.66;;;19.53;100.00
23677;BME280;31493;49.058;12.190;2023-06-22T05:55:48;96221.22;;;19.57;100.00
23677;BME280;31493;49.058;12.190;2023-06-22T05:58:15;96230.66;;;20.02;100.00
23677;BME280;31493;49.058;12.190;2023-06-22T06:00:44;96233.22;;;19.94;100.00
23677;BME280;31493;49.058;12.190;2023-06-22T06:03:12;96228.97;;;19.93;100.00
23677;BME280;31493;49.058;12.190;2023-06-22T06:05:43;96229.22;;;20.07;100.00
23677;BME280;31493;49.058;12.190;2023-06-22T06:08:10;96222.34;;;20.23;100.00
23677;BME280;31493;49.058;12.190;2023-06-22T06:10:38;96211.81;;;20.15;100.00
23677;BME280;31493;49.058;12.190;2023-06-22T06:13:05;96211.66;;;20.24;100.00
23677;BME280;31493;49.058;12.190;2023-06-22T06:15:32;96209.28;;;20.47;100.00
23677;BME280;31493;49.058;12.190;2023-06-22T06:18:00;96191.50;;;20.41;100.00
23677;BME280;31493;49.058;12.190;2023-06-22T06:20:28;96207.34;;;20.65;100.00
23677;BME280;31493;49.058;12.190;2023-06-22T06:22:55;96191.72;;;20.88;100.00
23677;BME280;31493;49.058;12.190;2023-06-22T06:25:23;96192.38;;;21.07;100.00
23677;BME280;31493;49.058;12.190;2023-06-22T06:27:51;96194.63;;;21.51;100.00
23677;BME280;31493;49.058;12.190;2023-06-22T06:30:20;96206.00;;;21.51;100.00
23677;BME280;31493;49.058;12.190;2023-06-22T06:32:49;96209.13;;;21.46;100.00
23677;BME280;31493;49.058;12.190;2023-06-22T06:35:17;96199.03;;;21.66;100.00
23677;BME280;31493;49.058;12.190;2023-06-22T06:37:46;96195.34;;;21.84;100.00
23677;BME280;31493;49.058;12.190;2023-06-22T06:40:13;96201.28;;;21.86;100.00
23677;BME280;31493;49.058;12.190;2023-06-22T06:42:43;96197.41;;;22.05;100.00
23677;BME280;31493;49.058;12.190;2023-06-22T06:45:10;96185.50;;;22.17;100.00
23677;BME280;31493;49.058;12.190;2023-06-22T06:47:37;96194.09;;;22.42;100.00
23677;BME280;31493;49.058;12.190;2023-06-22T06:50:05;96182.94;;;22.32;100.00
23677;BME280;31493;49.058;12.190;2023-06-22T06:52:34;96172.47;;;22.92;100.00
23677;BME280;31493;49.058;12.190;2023-06-22T06:55:01;96174.53;;;23.20;100.00
23677;BME280;31493;49.058;12.190;2023-06-22T06:57:30;96181.69;;;22.73;100.00
23677;BME280;31493;49.058;12.190;2023-06-22T06:59:58;96175.88;;;22.78;100.00
23677;BME280;31493;49.058;12.190;2023-06-22T07:02:26;96180.44;;;22.84;100.00
23677;BME280;31493;49.058;12.190;2023-06-22T07:04:53;96172.22;;;22.79;100.00
23677;BME280;31493;49.058;12.190;2023-06-22T07:07:22;96183.22;;;23.28;100.00
23677;BME280;31493;49.058;12.190;2023-06-22T07:09:50;96169.53;;;23.25;100.00
23677;BME280;31493;49.058;12.190;2023-06-22T07:12:17;96170.09;;;23.35;100.00
23677;BME280;31493;49.058;12.190;2023-06-22T07:14:44;96161.81;;;23.53;98.56
23677;BME280;31493;49.058;12.190;2023-06-22T07:17:11;96154.97;;;24.03;98.64
23677;BME280;31493;49.058;12.190;2023-06-22T07:19:38;96155.06;;;23.50;97.08
23677;BME280;31493;49.058;12.190;2023-06-22T07:22:06;96163.19;;;23.78;97.68
23677;BME280;31493;49.058;12.190;2023-06-22T07:24:33;96153.09;;;23.82;97.41
23677;BME280;31493;49.058;12.190;2023-06-22T07:27:01;96147.16;;;23.95;96.99
23677;BME280;31493;49.058;12.190;2023-06-22T07:29:29;96149.03;;;24.01;96.07
23677;BME280;31493;49.058;12.190;2023-06-22T07:31:57;96145.38;;;24.02;92.89
23677;BME280;31493;49.058;12.190;2023-06-22T07:34:26;96139.97;;;24.10;92.68
23677;BME280;31493;49.058;12.190;2023-06-22T07:36:53;96148.44;;;24.20;92.27
23677;BME280;31493;49.058;12.190;2023-06-22T07:39:20;96149.06;;;24.37;93.49
23677;BME280;31493;49.058;12.190;2023-06-22T07:41:51;96156.06;;;24.45;90.72
23677;BME280;31493;49.058;12.190;2023-06-22T07:44:20;96155.78;;;24.61;89.45
23677;BME280;31493;49.058;12.190;2023-06-22T07:46:47;96163.13;;;24.80;89.52
23677;BME280;31493;49.058;12.190;2023-06-22T07:49:14;96155.59;;;24.84;88.55
23677;BME280;31493;49.058;12.190;2023-06-22T07:51:41;96136.50;;;24.67;91.48
23677;BME280;31493;49.058;12.190;2023-06-22T07:54:09;96145.56;;;25.01;87.37
23677;BME280;31493;49.058;12.190;2023-06-22T07:56:36;96149.22;;;24.78;85.80
23677;BME280;31493;49.058;12.190;2023-06-22T07:59:03;96144.81;;;24.85;86.13
23677;BME280;31493;49.058;12.190;2023-06-22T08:01:32;96144.75;;;25.63;87.18
23677;BME280;31493;49.058;12.190;2023-06-22T08:03:59;96149.22;;;25.56;83.53
23677;BME280;31493;49.058;12.190;2023-06-22T08:06:26;96152.31;;;26.07;77.46
23677;BME280;31493;49.058;12.190;2023-06-22T08:08:53;96148.66;;;26.15;72.58
23677;BME280;31493;49.058;12.190;2023-06-22T08:11:22;96149.97;;;26.39;73.37
23677;BME280;31493;49.058;12.190;2023-06-22T08:13:51;96139.75;;;26.36;68.10
23677;BME280;31493;49.058;12.190;2023-06-22T08:16:18;96139.25;;;26.06;66.32
23677;BME280;31493;49.058;12.190;2023-06-22T08:18:47;96151.47;;;25.93;66.67
23677;BME280;31493;49.058;12.190;2023-06-22T08:21:14;96133.97;;;26.12;69.79
23677;BME280;31493;49.058;12.190;2023-06-22T08:23:41;96144.03;;;26.30;70.42
23677;BME280;31493;49.058;12.190;2023-06-22T08:26:08;96139.81;;;26.49;66.36
23677;BME280;31493;49.058;12.190;2023-06-22T08:28:35;96133.91;;;26.60;67.13
23677;BME280;31493;49.058;12.190;2023-06-22T08:31:02;96138.19;;;26.68;69.79
23677;BME280;31493;49.058;12.190;2023-06-22T08:33:29;96146.75;;;26.50;64.34
23677;BME280;31493;49.058;12.190;2023-06-22T08:35:58;96136.97;;;26.57;63.20
23677;BME280;31493;49.058;12.190;2023-06-22T08:38:26;96126.16;;;26.65;63.13
23677;BME280;31493;49.058;12.190;2023-06-22T08:40:53;96135.38;;;26.83;67.89
23677;BME280;31493;49.058;12.190;2023-06-22T08:43:20;96128.41;;;26.68;69.72
23677;BME280;31493;49.058;12.190;2023-06-22T08:45:47;96133.09;;;26.79;64.82
23677;BME280;31493;49.058;12.190;2023-06-22T08:48:14;96128.41;;;26.68;64.27
23677;BME280;31493;49.058;12.190;2023-06-22T08:50:41;96120.84;;;26.92;63.76
23677;BME280;31493;49.058;12.190;2023-06-22T08:53:09;96136.19;;;27.03;64.87
23677;BME280;31493;49.058;12.190;2023-06-22T08:55:36;96129.47;;;27.14;62.84
23677;BME280;31493;49.058;12.190;2023-06-22T08:58:03;96141.03;;;27.52;61.75
23677;BME280;31493;49.058;12.190;2023-06-22T09:00:30;96135.44;;;27.80;64.75
23677;BME280;31493;49.058;12.190;2023-06-22T09:03:00;96125.91;;;27.53;59.15
23677;BME280;31493;49.058;12.190;2023-06-22T09:05:27;96132.19;;;27.78;60.28
23677;BME280;31493;49.058;12.190;2023-06-22T09:07:56;96130.28;;;27.92;59.75
23677;BME280;31493;49.058;12.190;2023-06-22T09:10:25;96129.34;;;27.67;61.01
23677;BME280;31493;49.058;12.190;2023-06-22T09:12:52;96132.88;;;27.47;59.44
23677;BME280;31493;49.058;12.190;2023-06-22T09:15:20;96124.63;;;27.62;60.54
23677;BME280;31493;49.058;12.190;2023-06-22T09:17:47;96131.56;;;27.83;59.65
23677;BME280;31493;49.058;12.190;2023-06-22T09:20:14;96128.84;;;27.96;58.68
23677;BME280;31493;49.058;12.190;2023-06-22T09:22:42;96125.72;;;27.48;53.56
23677;BME280;31493;49.058;12.190;2023-06-22T09:25:09;96141.59;;;27.88;54.86
23677;BME280;31493;49.058;12.190;2023-06-22T09:27:37;96136.63;;;27.91;56.88
23677;BME280;31493;49.058;12.190;2023-06-22T09:30:05;96127.56;;;28.12;57.47
23677;BME280;31493;49.058;12.190;2023-06-22T09:32:33;96123.00;;;28.19;57.54
23677;BME280;31493;49.058;12.190;2023-06-22T09:35:03;96123.56;;;28.28;61.34
23677;BME280;31493;49.058;12.190;2023-06-22T09:37:31;96119.63;;;28.44;59.43
23677;BME280;31493;49.058;12.190;2023-06-22T09:39:58;96119.53;;;28.57;56.85
23677;BME280;31493;49.058;12.190;2023-06-22T09:42:25;96115.53;;;27.96;55.55
23677;BME280;31493;49.058;12.190;2023-06-22T09:44:54;96116.81;;;27.94;54.67
23677;BME280;31493;49.058;12.190;2023-06-22T09:47:21;96110.53;;;28.20;57.91
23677;BME280;31493;49.058;12.190;2023-06-22T09:49:48;96113.41;;;28.18;56.10
23677;BME280;31493;49.058;12.190;2023-06-22T09:52:15;96111.34;;;28.83;55.75
23677;BME280;31493;49.058;12.190;2023-06-22T09:54:42;96111.97;;;28.54;52.83
23677;BME280;31493;49.058;12.190;2023-06-22T09:57:09;96102.94;;;28.17;51.40
23677;BME280;31493;49.058;12.190;2023-06-22T09:59:36;96111.28;;;28.27;51.06
23677;BME280;31493;49.058;12.190;2023-06-22T10:02:05;96098.19;;;28.32;52.39
23677;BME280;31493;49.058;12.190;2023-06-22T10:04:32;96104.78;;;28.86;52.99
23677;BME280;31493;49.058;12.190;2023-06-22T10:07:00;96092.19;;;29.00;50.77
23677;BME280;31493;49.058;12.190;2023-06-22T10:09:27;96098.53;;;28.74;46.37
23677;BME280;31493;49.058;12.190;2023-06-22T10:11:54;96108.22;;;28.93;48.26
23677;BME280;31493;49.058;12.190;2023-06-22T10:14:21;96099.38;;;28.68;48.59
23677;BME280;31493;49.058;12.190;2023-06-22T10:16:48;96095.50;;;28.95;49.06
23677;BME280;31493;49.058;12.190;2023-06-22T10:19:16;96103.47;;;28.38;45.82
23677;BME280;31493;49.058;12.190;2023-06-22T10:21:43;96091.00;;;28.64;46.81
23677;BME280;31493;49.058;12.190;2023-06-22T10:24:10;96099.38;;;28.43;47.02
23677;BME280;31493;49.058;12.190;2023-06-22T10:26:38;96093.28;;;28.92;46.96
23677;BME280;31493;49.058;12.190;2023-06-22T10:29:05;96082.84;;;28.84;45.84
23677;BME280;31493;49.058;12.190;2023-06-22T10:31:32;96075.16;;;29.01;46.68
23677;BME280;31493;49.058;12.190;2023-06-22T10:33:59;96070.97;;;28.86;46.50
23677;BME280;31493;49.058;12.190;2023-06-22T10:36:27;96075.78;;;28.71;45.35
23677;BME280;31493;49.058;12.190;2023-06-22T10:38:54;96071.44;;;29.02;46.56
23677;BME280;31493;49.058;12.190;2023-06-22T10:41:21;96067.19;;;29.37;47.26
23677;BME280;31493;49.058;12.190;2023-06-22T10:43:48;96068.66;;;29.33;46.97
23677;BME280;31493;49.058;12.190;2023-06-22T10:46:15;96060.44;;;28.98;47.64
23677;BME280;31493;49.058;12.190;2023-06-22T10:48:42;96062.13;;;29.54;50.47
23677;BME280;31493;49.058;12.190;2023-06-22T10:51:09;96054.75;;;29.50;46.65
23677;BME280;31493;49.058;12.190;2023-06-22T10:53:38;96054.25;;;29.78;47.22
23677;BME280;31493;49.058;12.190;2023-06-22T10:56:05;96051.69;;;29.28;48.50
23677;BME280;31493;49.058;12.190;2023-06-22T10:58:32;96036.44;;;29.90;48.54
23677;BME280;31493;49.058;12.190;2023-06-22T11:00:59;96023.06;;;30.20;49.63
23677;BME280;31493;49.058;12.190;2023-06-22T11:03:26;96025.50;;;30.63;49.85
23677;BME280;31493;49.058;12.190;2023-06-22T11:05:53;96038.50;;;30.18;47.53
23677;BME280;31493;49.058;12.190;2023-06-22T11:08:20;96039.66;;;30.10;47.80
23677;BME280;31493;49.058;12.190;2023-06-22T11:10:48;96027.50;;;30.80;47.68
23677;BME280;31493;49.058;12.190;2023-06-22T11:13:15;96028.66;;;30.84;47.45
23677;BME280;31493;49.058;12.190;2023-06-22T11:15:42;96019.25;;;30.81;48.00
23677;BME280;31493;49.058;12.190;2023-06-22T11:18:09;96006.59;;;31.00;46.71
23677;BME280;31493;49.058;12.190;2023-06-22T11:20:36;96004.38;;;30.85;50.01
23677;BME280;31493;49.058;12.190;2023-06-22T11:23:06;95992.31;;;30.94;46.98
23677;BME280;31493;49.058;12.190;2023-06-22T11:25:33;95999.41;;;30.89;47.09
23677;BME280;31493;49.058;12.190;2023-06-22T11:28:03;95999.25;;;30.60;47.17
23677;BME280;31493;49.058;12.190;2023-06-22T11:30:30;96009.84;;;30.79;47.19
23677;BME280;31493;49.058;12.190;2023-06-22T11:32:58;95989.97;;;30.74;48.38
23677;BME280;31493;49.058;12.190;2023-06-22T11:35:25;95998.91;;;30.92;46.90
23677;BME280;31493;49.058;12.190;2023-06-22T11:37:52;95990.22;;;30.85;46.77
23677;BME280;31493;49.058;12.190;2023-06-22T11:40:20;95973.78;;;31.28;50.12
23677;BME280;31493;49.058;12.190;2023-06-22T11:42:48;95978.09;;;31.06;48.66
23677;BME280;31493;49.058;12.190;2023-06-22T11:45:17;95995.66;;;30.78;49.53
23677;BME280;31493;49.058;12.190;2023-06-22T11:47:44;95983.00;;;30.08;45.90
23677;BME280;31493;49.058;12.190;2023-06-22T11:50:11;95992.47;;;30.22;48.45
23677;BME280;31493;49.058;12.190;2023-06-22T11:52:38;95987.59;;;30.43;51.39
23677;BME280;31493;49.058;12.190;2023-06-22T11:55:06;95977.66;;;30.73;51.55
23677;BME280;31493;49.058;12.190;2023-06-22T11:57:34;95979.28;;;30.98;51.31
23677;BME280;31493;49.058;12.190;2023-06-22T12:00:02;95978.69;;;31.31;50.30
23677;BME280;31493;49.058;12.190;2023-06-22T12:02:34;95986.91;;;31.18;51.16
23677;BME280;31493;49.058;12.190;2023-06-22T12:05:01;95973.94;;;30.98;49.42
23677;BME280;31493;49.058;12.190;2023-06-22T12:07:30;95965.09;;;31.09;49.50
23677;BME280;31493;49.058;12.190;2023-06-22T12:09:57;95965.69;;;30.64;47.16
23677;BME280;31493;49.058;12.190;2023-06-22T12:12:24;95966.41;;;30.83;45.65
23677;BME280;31493;49.058;12.190;2023-06-22T12:14:51;95968.00;;;31.08;47.66
23677;BME280;31493;49.058;12.190;2023-06-22T12:17:18;95973.47;;;30.89;47.87
23677;BME280;31493;49.058;12.190;2023-06-22T12:19:46;95971.72;;;31.07;47.28
23677;BME280;31493;49.058;12.190;2023-06-22T12:22:13;95970.88;;;31.18;48.00
23677;BME280;31493;49.058;12.190;2023-06-22T12:24:40;95970.13;;;30.94;46.45
23677;BME280;31493;49.058;12.190;2023-06-22T12:27:07;95968.09;;;31.13;46.27
23677;BME280;31493;49.058;12.190;2023-06-22T12:29:35;95966.31;;;31.30;47.10
23677;BME280;31493;49.058;12.190;2023-06-22T12:32:03;95959.41;;;30.94;48.88
23677;BME280;31493;49.058;12.190;2023-06-22T12:34:30;95943.38;;;30.59;48.98
23677;BME280;31493;49.058;12.190;2023-06-22T12:36:58;95958.03;;;30.80;50.33
23677;BME280;31493;49.058;12.190;2023-06-22T12:39:25;95938.31;;;31.33;48.46
23677;BME280;31493;49.058;12.190;2023-06-22T12:41:52;95955.34;;;30.80;48.67
23677;BME280;31493;49.058;12.190;2023-06-22T12:44:19;95948.69;;;31.06;47.37
23677;BME280;31493;49.058;12.190;2023-06-22T12:46:46;95960.44;;;30.46;46.70
23677;BME280;31493;49.058;12.190;2023-06-22T12:49:13;95943.75;;;30.74;48.43